Главная страница
METAR-TAF:

METAR-TAF

Аэропорты :

Зонгулдак, Турция

широта: 41-27N, долгота: 031-48E, высота над уровнем моря: 136 м

Текущие метеонаблюдения

Эта сводка был подготовлена 28 минут назад, в 06:50 UTC
Ветер 2 Узел переменных направлений
Температура 19°C
Влажность 52%
Давление 1015 hPa
Видимость 10 км и более
Нет облачности ниже 1500 м, и нет кучево-дождевой облачности

METAR: LTAS 290650Z VRB02KT CAVOK 19/09 Q1015

Время: 10:18 (07:18 UTC)

Прогноз

Эта сводка был подготовлена 2 часа и 38 минут назад, в 04:40 UTC
Прогноз действительный с 29-го 06 UTC до 29-го 15 UTC
Ветер 2 Узел переменных направлений
Видимость 10 км и более
Нет облачности ниже 1500 м, и нет кучево-дождевой облачности
временами
С 29-го 09 UTC до 29-го 13 UTC
Ветер 12 Узел от западный

TAF: LTAS 290440Z 2906/2915 VRB02KT CAVOK TEMPO 2909/2913 28012KT

Метеонаблюдения и прогнозы для более 4000 аэропортов (сводки METAR и TAF).

Имеющиеся станции представлены на карте желтыми и красными точками.

Чтобы увидеть название станции, наведите на нее мышь.

Затем щелкните, чтобы увидеть метеонаблюдения и метеопрогнозы.

Управление картой: чтобы увеличить масштаб, щелкните зеленые кнопки с черным крестиком; чтобы уменьшить масштаб, щелкните зеленую кнопку с тире; для просмотра соседних карт щелкайте зеленые стрелки.


METAR-TAF: